CheckWX is a tool to help pilots better visualize weather data.  It is not intended as a substitute for an official pre-flight weather briefing.

10:53:15 UTC

24J METAR
Suwannee County Airport
Live Oak, Florida, USA
Current

18 mins ago

K24J 281035Z AUTO 00000KT 9SM CLR 06/06 A2998 RMK A01
Observed
Jan-28 @ 10:35 UTC
Visibility
9 SM
Flight Rules
VFR
Cloud Levels
  • Clear skies
Temperature
C / 43°F
Dewpoint
C / 43°F
Humidity
100%
Altimeter
29.98" Hg
Pressure
1015.22 hPa
Previous

38 mins ago

K24J 281015Z AUTO 00000KT 1/4SM FG VV002 06/06 A2998 RMK A01
Observed
Jan-28 @ 10:15 UTC
Visibility
1/4 SM
Flight Rules
LIFR
Conditions
Fog
Cloud Levels
  • Vertical visibility at 200' AGL
Temperature
C / 43°F
Dewpoint
C / 43°F
Humidity
100%
Altimeter
29.98" Hg
Pressure
1015.22 hPa
Previous

58 mins ago

K24J 280955Z AUTO 00000KT 1/2SM FG VV005 06/06 A2998 RMK A01
Observed
Jan-28 @ 09:55 UTC
Visibility
1/2 SM
Flight Rules
LIFR
Conditions
Fog
Cloud Levels
  • Vertical visibility at 500' AGL
Temperature
C / 43°F
Dewpoint
C / 43°F
Humidity
100%
Altimeter
29.98" Hg
Pressure
1015.22 hPa